sensor_id;sensor_type;location;lat;lon;timestamp;temperature;humidity
54832;DHT22;40730;53.068;6.572;2023-07-08T00:01:15;16.90;99.90
54832;DHT22;40730;53.068;6.572;2023-07-08T00:03:41;16.80;99.90
54832;DHT22;40730;53.068;6.572;2023-07-08T00:06:20;16.80;99.90
54832;DHT22;40730;53.068;6.572;2023-07-08T00:08:46;16.80;99.90
54832;DHT22;40730;53.068;6.572;2023-07-08T00:11:13;16.70;99.90
54832;DHT22;40730;53.068;6.572;2023-07-08T00:13:39;16.70;99.90
54832;DHT22;40730;53.068;6.572;2023-07-08T00:16:10;16.60;99.90
54832;DHT22;40730;53.068;6.572;2023-07-08T00:18:35;16.70;99.90
54832;DHT22;40730;53.068;6.572;2023-07-08T00:21:01;16.70;99.90
54832;DHT22;40730;53.068;6.572;2023-07-08T00:23:27;16.60;99.90
54832;DHT22;40730;53.068;6.572;2023-07-08T00:25:52;16.60;99.90
54832;DHT22;40730;53.068;6.572;2023-07-08T00:28:20;16.60;99.90
54832;DHT22;40730;53.068;6.572;2023-07-08T00:30:46;16.50;99.90
54832;DHT22;40730;53.068;6.572;2023-07-08T00:33:12;16.50;99.90
54832;DHT22;40730;53.068;6.572;2023-07-08T00:35:43;16.40;99.90
54832;DHT22;40730;53.068;6.572;2023-07-08T00:38:22;16.40;99.90
54832;DHT22;40730;53.068;6.572;2023-07-08T00:41:08;16.40;99.90
54832;DHT22;40730;53.068;6.572;2023-07-08T00:43:53;16.40;99.90
54832;DHT22;40730;53.068;6.572;2023-07-08T00:46:30;16.30;99.90
54832;DHT22;40730;53.068;6.572;2023-07-08T00:51:28;16.30;99.90
54832;DHT22;40730;53.068;6.572;2023-07-08T00:53:54;16.30;99.90
54832;DHT22;40730;53.068;6.572;2023-07-08T01:01:17;16.10;99.90
54832;DHT22;40730;53.068;6.572;2023-07-08T01:03:48;16.20;99.90
54832;DHT22;40730;53.068;6.572;2023-07-08T01:06:17;16.20;99.90
54832;DHT22;40730;53.068;6.572;2023-07-08T01:08:43;16.10;99.90
54832;DHT22;40730;53.068;6.572;2023-07-08T01:11:09;16.10;99.90
54832;DHT22;40730;53.068;6.572;2023-07-08T01:13:38;16.20;99.90
54832;DHT22;40730;53.068;6.572;2023-07-08T01:16:06;16.10;99.90
54832;DHT22;40730;53.068;6.572;2023-07-08T01:18:32;16.10;99.90
54832;DHT22;40730;53.068;6.572;2023-07-08T01:21:27;16.00;99.90
54832;DHT22;40730;53.068;6.572;2023-07-08T01:23:52;16.00;99.90
54832;DHT22;40730;53.068;6.572;2023-07-08T01:26:19;16.00;99.90
54832;DHT22;40730;53.068;6.572;2023-07-08T01:28:45;16.00;99.90
54832;DHT22;40730;53.068;6.572;2023-07-08T01:31:11;15.90;99.90
54832;DHT22;40730;53.068;6.572;2023-07-08T01:33:37;15.90;99.90
54832;DHT22;40730;53.068;6.572;2023-07-08T01:36:02;15.80;99.90
54832;DHT22;40730;53.068;6.572;2023-07-08T01:38:28;15.90;99.90
54832;DHT22;40730;53.068;6.572;2023-07-08T01:40:56;15.90;99.90
54832;DHT22;40730;53.068;6.572;2023-07-08T01:43:22;15.90;99.90
54832;DHT22;40730;53.068;6.572;2023-07-08T01:45:48;15.80;99.90
54832;DHT22;40730;53.068;6.572;2023-07-08T01:48:17;15.80;99.90
54832;DHT22;40730;53.068;6.572;2023-07-08T01:50:57;15.80;99.90
54832;DHT22;40730;53.068;6.572;2023-07-08T01:53:35;15.80;99.90
54832;DHT22;40730;53.068;6.572;2023-07-08T01:56:02;15.80;99.90
54832;DHT22;40730;53.068;6.572;2023-07-08T01:58:28;15.70;99.90
54832;DHT22;40730;53.068;6.572;2023-07-08T02:00:54;15.80;99.90
54832;DHT22;40730;53.068;6.572;2023-07-08T02:03:20;15.70;99.90
54832;DHT22;40730;53.068;6.572;2023-07-08T02:05:46;15.70;99.90
54832;DHT22;40730;53.068;6.572;2023-07-08T02:08:12;15.70;99.90
54832;DHT22;40730;53.068;6.572;2023-07-08T02:10:42;15.70;99.90
54832;DHT22;40730;53.068;6.572;2023-07-08T02:13:08;15.70;99.90
54832;DHT22;40730;53.068;6.572;2023-07-08T02:15:34;15.70;99.90
54832;DHT22;40730;53.068;6.572;2023-07-08T02:18:00;15.70;99.90
54832;DHT22;40730;53.068;6.572;2023-07-08T02:20:25;15.60;99.90
54832;DHT22;40730;53.068;6.572;2023-07-08T02:22:51;15.60;99.90
54832;DHT22;40730;53.068;6.572;2023-07-08T02:25:17;15.60;99.90
54832;DHT22;40730;53.068;6.572;2023-07-08T02:27:43;15.60;99.90
54832;DHT22;40730;53.068;6.572;2023-07-08T02:30:09;15.60;99.90
54832;DHT22;40730;53.068;6.572;2023-07-08T02:32:36;15.60;99.90
54832;DHT22;40730;53.068;6.572;2023-07-08T02:35:08;15.50;99.90
54832;DHT22;40730;53.068;6.572;2023-07-08T02:37:34;15.50;99.90
54832;DHT22;40730;53.068;6.572;2023-07-08T02:40:00;15.50;99.90
54832;DHT22;40730;53.068;6.572;2023-07-08T02:42:26;15.50;99.90
54832;DHT22;40730;53.068;6.572;2023-07-08T02:44:52;15.40;99.90
54832;DHT22;40730;53.068;6.572;2023-07-08T02:47:17;15.40;99.90
54832;DHT22;40730;53.068;6.572;2023-07-08T02:49:43;15.50;99.90
54832;DHT22;40730;53.068;6.572;2023-07-08T02:52:09;15.40;99.90
54832;DHT22;40730;53.068;6.572;2023-07-08T02:54:35;15.40;99.90
54832;DHT22;40730;53.068;6.572;2023-07-08T02:57:00;15.40;99.90
54832;DHT22;40730;53.068;6.572;2023-07-08T02:59:26;15.40;99.90
54832;DHT22;40730;53.068;6.572;2023-07-08T03:01:53;15.40;99.90
54832;DHT22;40730;53.068;6.572;2023-07-08T03:04:19;15.40;99.90
54832;DHT22;40730;53.068;6.572;2023-07-08T03:06:49;15.40;99.90
54832;DHT22;40730;53.068;6.572;2023-07-08T03:09:15;15.50;99.90
54832;DHT22;40730;53.068;6.572;2023-07-08T03:11:41;15.40;99.90
54832;DHT22;40730;53.068;6.572;2023-07-08T03:14:07;15.40;99.90
54832;DHT22;40730;53.068;6.572;2023-07-08T03:16:33;15.40;99.90
54832;DHT22;40730;53.068;6.572;2023-07-08T03:18:58;15.40;99.90
54832;DHT22;40730;53.068;6.572;2023-07-08T03:21:24;15.40;99.90
54832;DHT22;40730;53.068;6.572;2023-07-08T03:23:51;15.40;99.90
54832;DHT22;40730;53.068;6.572;2023-07-08T03:26:20;15.40;99.90
54832;DHT22;40730;53.068;6.572;2023-07-08T03:28:47;15.40;99.90
54832;DHT22;40730;53.068;6.572;2023-07-08T03:31:13;15.40;99.90
54832;DHT22;40730;53.068;6.572;2023-07-08T03:33:39;15.40;99.90
54832;DHT22;40730;53.068;6.572;2023-07-08T03:36:09;15.30;99.90
54832;DHT22;40730;53.068;6.572;2023-07-08T03:38:36;15.40;99.90
54832;DHT22;40730;53.068;6.572;2023-07-08T03:41:02;15.40;99.90
54832;DHT22;40730;53.068;6.572;2023-07-08T03:43:27;15.40;99.90
54832;DHT22;40730;53.068;6.572;2023-07-08T03:45:53;15.40;99.90
54832;DHT22;40730;53.068;6.572;2023-07-08T03:48:19;15.40;99.90
54832;DHT22;40730;53.068;6.572;2023-07-08T03:50:44;15.40;99.90
54832;DHT22;40730;53.068;6.572;2023-07-08T03:53:10;15.40;99.90
54832;DHT22;40730;53.068;6.572;2023-07-08T03:55:36;15.50;99.90
54832;DHT22;40730;53.068;6.572;2023-07-08T03:58:01;15.40;99.90
54832;DHT22;40730;53.068;6.572;2023-07-08T04:00:27;15.50;99.90
54832;DHT22;40730;53.068;6.572;2023-07-08T04:02:53;15.50;99.90
54832;DHT22;40730;53.068;6.572;2023-07-08T04:05:20;15.50;99.90
54832;DHT22;40730;53.068;6.572;2023-07-08T04:07:47;15.50;99.90
54832;DHT22;40730;53.068;6.572;2023-07-08T04:10:13;15.50;99.90
54832;DHT22;40730;53.068;6.572;2023-07-08T04:12:39;15.50;99.90
54832;DHT22;40730;53.068;6.572;2023-07-08T04:15:07;15.50;99.90
54832;DHT22;40730;53.068;6.572;2023-07-08T04:17:33;15.60;99.90
54832;DHT22;40730;53.068;6.572;2023-07-08T04:19:59;15.50;99.90
54832;DHT22;40730;53.068;6.572;2023-07-08T04:22:31;15.70;99.90
54832;DHT22;40730;53.068;6.572;2023-07-08T04:24:57;15.70;99.90
54832;DHT22;40730;53.068;6.572;2023-07-08T04:27:22;15.70;99.90
54832;DHT22;40730;53.068;6.572;2023-07-08T04:29:48;15.80;99.90
54832;DHT22;40730;53.068;6.572;2023-07-08T04:32:14;15.90;99.90
54832;DHT22;40730;53.068;6.572;2023-07-08T04:34:39;15.90;99.90
54832;DHT22;40730;53.068;6.572;2023-07-08T04:37:05;15.90;99.90
54832;DHT22;40730;53.068;6.572;2023-07-08T04:39:31;15.90;99.90
54832;DHT22;40730;53.068;6.572;2023-07-08T04:41:57;16.00;99.90
54832;DHT22;40730;53.068;6.572;2023-07-08T04:44:22;16.10;99.90
54832;DHT22;40730;53.068;6.572;2023-07-08T04:46:52;16.20;99.90
54832;DHT22;40730;53.068;6.572;2023-07-08T04:49:19;16.40;99.90
54832;DHT22;40730;53.068;6.572;2023-07-08T04:51:45;16.50;99.90
54832;DHT22;40730;53.068;6.572;2023-07-08T04:54:11;16.60;99.90
54832;DHT22;40730;53.068;6.572;2023-07-08T04:56:48;16.50;99.90
54832;DHT22;40730;53.068;6.572;2023-07-08T04:59:17;16.50;99.90
54832;DHT22;40730;53.068;6.572;2023-07-08T05:01:43;16.50;99.90
54832;DHT22;40730;53.068;6.572;2023-07-08T05:04:12;16.50;99.90
54832;DHT22;40730;53.068;6.572;2023-07-08T05:06:38;16.60;99.90
54832;DHT22;40730;53.068;6.572;2023-07-08T05:09:05;16.60;99.90
54832;DHT22;40730;53.068;6.572;2023-07-08T05:11:31;16.60;99.90
54832;DHT22;40730;53.068;6.572;2023-07-08T05:13:57;16.70;99.90
54832;DHT22;40730;53.068;6.572;2023-07-08T05:16:23;16.70;99.90
54832;DHT22;40730;53.068;6.572;2023-07-08T05:18:49;16.70;99.90
54832;DHT22;40730;53.068;6.572;2023-07-08T05:21:15;16.80;99.90
54832;DHT22;40730;53.068;6.572;2023-07-08T05:23:41;16.90;99.90
54832;DHT22;40730;53.068;6.572;2023-07-08T05:26:07;16.80;99.90
54832;DHT22;40730;53.068;6.572;2023-07-08T05:28:33;16.90;99.90
54832;DHT22;40730;53.068;6.572;2023-07-08T05:30:59;16.90;99.90
54832;DHT22;40730;53.068;6.572;2023-07-08T05:33:26;17.00;99.90
54832;DHT22;40730;53.068;6.572;2023-07-08T05:35:52;17.10;99.90
54832;DHT22;40730;53.068;6.572;2023-07-08T05:38:19;17.20;99.90
54832;DHT22;40730;53.068;6.572;2023-07-08T05:40:55;17.20;99.90
54832;DHT22;40730;53.068;6.572;2023-07-08T05:43:21;17.30;99.90
54832;DHT22;40730;53.068;6.572;2023-07-08T05:45:47;17.30;99.90
54832;DHT22;40730;53.068;6.572;2023-07-08T05:48:13;17.40;99.90
54832;DHT22;40730;53.068;6.572;2023-07-08T05:50:39;17.40;99.90
54832;DHT22;40730;53.068;6.572;2023-07-08T05:53:08;17.50;99.90
54832;DHT22;40730;53.068;6.572;2023-07-08T05:55:35;17.60;99.90
54832;DHT22;40730;53.068;6.572;2023-07-08T05:58:00;17.60;99.90
54832;DHT22;40730;53.068;6.572;2023-07-08T06:00:26;17.70;99.90
54832;DHT22;40730;53.068;6.572;2023-07-08T06:02:51;17.80;99.90
54832;DHT22;40730;53.068;6.572;2023-07-08T06:05:17;17.80;99.90
54832;DHT22;40730;53.068;6.572;2023-07-08T06:07:43;17.90;99.90
54832;DHT22;40730;53.068;6.572;2023-07-08T06:10:09;18.00;99.90
54832;DHT22;40730;53.068;6.572;2023-07-08T06:12:34;18.10;99.90
54832;DHT22;40730;53.068;6.572;2023-07-08T06:15:00;18.20;99.90
54832;DHT22;40730;53.068;6.572;2023-07-08T06:17:26;18.30;99.90
54832;DHT22;40730;53.068;6.572;2023-07-08T06:19:52;18.40;99.90
54832;DHT22;40730;53.068;6.572;2023-07-08T06:22:17;18.50;99.90
54832;DHT22;40730;53.068;6.572;2023-07-08T06:24:43;18.60;99.90
54832;DHT22;40730;53.068;6.572;2023-07-08T06:27:09;18.70;99.90
54832;DHT22;40730;53.068;6.572;2023-07-08T06:29:35;18.80;99.90
54832;DHT22;40730;53.068;6.572;2023-07-08T06:32:02;18.90;99.90
54832;DHT22;40730;53.068;6.572;2023-07-08T06:34:28;19.10;99.90
54832;DHT22;40730;53.068;6.572;2023-07-08T06:36:53;19.20;99.90
54832;DHT22;40730;53.068;6.572;2023-07-08T06:39:19;19.30;99.90
54832;DHT22;40730;53.068;6.572;2023-07-08T06:41:45;19.50;99.90
54832;DHT22;40730;53.068;6.572;2023-07-08T06:44:11;19.70;99.90
54832;DHT22;40730;53.068;6.572;2023-07-08T06:46:37;19.90;99.90
54832;DHT22;40730;53.068;6.572;2023-07-08T06:49:03;20.10;99.90
54832;DHT22;40730;53.068;6.572;2023-07-08T06:51:28;20.20;99.90
54832;DHT22;40730;53.068;6.572;2023-07-08T06:53:54;20.30;99.90
54832;DHT22;40730;53.068;6.572;2023-07-08T06:56:20;20.40;99.90
54832;DHT22;40730;53.068;6.572;2023-07-08T06:58:46;20.60;99.90
54832;DHT22;40730;53.068;6.572;2023-07-08T07:01:12;20.70;99.90
54832;DHT22;40730;53.068;6.572;2023-07-08T07:03:38;20.90;99.90
54832;DHT22;40730;53.068;6.572;2023-07-08T07:06:03;21.10;99.90
54832;DHT22;40730;53.068;6.572;2023-07-08T07:08:29;21.30;99.90
54832;DHT22;40730;53.068;6.572;2023-07-08T07:10:55;21.50;99.90
54832;DHT22;40730;53.068;6.572;2023-07-08T07:13:20;21.70;99.90
54832;DHT22;40730;53.068;6.572;2023-07-08T07:15:48;21.80;99.90
54832;DHT22;40730;53.068;6.572;2023-07-08T07:18:14;21.90;99.90
54832;DHT22;40730;53.068;6.572;2023-07-08T07:20:48;22.00;99.90
54832;DHT22;40730;53.068;6.572;2023-07-08T07:23:14;22.10;99.90
54832;DHT22;40730;53.068;6.572;2023-07-08T07:25:39;22.10;99.90
54832;DHT22;40730;53.068;6.572;2023-07-08T07:28:05;22.30;99.90
54832;DHT22;40730;53.068;6.572;2023-07-08T07:30:31;22.50;99.90
54832;DHT22;40730;53.068;6.572;2023-07-08T07:32:59;22.50;99.90
54832;DHT22;40730;53.068;6.572;2023-07-08T07:35:25;22.50;99.90
54832;DHT22;40730;53.068;6.572;2023-07-08T07:37:51;22.60;99.90
54832;DHT22;40730;53.068;6.572;2023-07-08T07:40:17;22.70;99.90
54832;DHT22;40730;53.068;6.572;2023-07-08T07:42:45;22.90;99.90
54832;DHT22;40730;53.068;6.572;2023-07-08T07:45:12;23.00;99.90
54832;DHT22;40730;53.068;6.572;2023-07-08T07:47:38;23.20;99.90
54832;DHT22;40730;53.068;6.572;2023-07-08T07:50:05;23.40;99.90
54832;DHT22;40730;53.068;6.572;2023-07-08T07:52:30;23.60;99.90
54832;DHT22;40730;53.068;6.572;2023-07-08T07:54:56;23.60;99.90
54832;DHT22;40730;53.068;6.572;2023-07-08T07:57:22;23.80;99.90
54832;DHT22;40730;53.068;6.572;2023-07-08T07:59:49;23.90;99.90
54832;DHT22;40730;53.068;6.572;2023-07-08T08:02:15;24.10;99.90
54832;DHT22;40730;53.068;6.572;2023-07-08T08:04:41;24.40;99.90
54832;DHT22;40730;53.068;6.572;2023-07-08T08:07:07;24.50;99.90
54832;DHT22;40730;53.068;6.572;2023-07-08T08:09:32;24.80;99.90
54832;DHT22;40730;53.068;6.572;2023-07-08T08:12:00;24.90;99.90
54832;DHT22;40730;53.068;6.572;2023-07-08T08:14:26;25.10;99.90
54832;DHT22;40730;53.068;6.572;2023-07-08T08:16:52;25.40;99.90
54832;DHT22;40730;53.068;6.572;2023-07-08T08:19:17;25.40;98.60
54832;DHT22;40730;53.068;6.572;2023-07-08T08:21:43;25.50;98.50
54832;DHT22;40730;53.068;6.572;2023-07-08T08:24:08;25.70;98.10
54832;DHT22;40730;53.068;6.572;2023-07-08T08:26:34;25.80;97.80
54832;DHT22;40730;53.068;6.572;2023-07-08T08:29:00;26.00;97.70
54832;DHT22;40730;53.068;6.572;2023-07-08T08:31:26;26.20;97.20
54832;DHT22;40730;53.068;6.572;2023-07-08T08:33:52;26.30;96.70
54832;DHT22;40730;53.068;6.572;2023-07-08T08:36:18;26.30;96.50
54832;DHT22;40730;53.068;6.572;2023-07-08T08:38:44;26.50;96.70
54832;DHT22;40730;53.068;6.572;2023-07-08T08:41:14;26.70;96.60
54832;DHT22;40730;53.068;6.572;2023-07-08T08:43:41;26.90;96.60
54832;DHT22;40730;53.068;6.572;2023-07-08T08:51:30;26.90;95.40
54832;DHT22;40730;53.068;6.572;2023-07-08T08:53:57;27.00;94.80
54832;DHT22;40730;53.068;6.572;2023-07-08T08:56:29;27.10;94.80
54832;DHT22;40730;53.068;6.572;2023-07-08T08:59:13;27.40;95.40
54832;DHT22;40730;53.068;6.572;2023-07-08T09:01:40;27.80;95.20
54832;DHT22;40730;53.068;6.572;2023-07-08T09:04:16;27.80;94.50
54832;DHT22;40730;53.068;6.572;2023-07-08T09:06:42;27.90;94.30
54832;DHT22;40730;53.068;6.572;2023-07-08T09:12:17;28.10;91.70
54832;DHT22;40730;53.068;6.572;2023-07-08T09:14:44;28.20;92.20
54832;DHT22;40730;53.068;6.572;2023-07-08T09:22:43;28.90;90.90
54832;DHT22;40730;53.068;6.572;2023-07-08T09:27:47;29.30;87.50
54832;DHT22;40730;53.068;6.572;2023-07-08T09:30:15;29.40;87.80
54832;DHT22;40730;53.068;6.572;2023-07-08T09:32:41;29.50;89.10
54832;DHT22;40730;53.068;6.572;2023-07-08T09:35:08;29.80;86.70
54832;DHT22;40730;53.068;6.572;2023-07-08T09:37:36;29.80;84.30
54832;DHT22;40730;53.068;6.572;2023-07-08T09:40:21;29.90;85.00
54832;DHT22;40730;53.068;6.572;2023-07-08T09:42:52;30.00;81.90
54832;DHT22;40730;53.068;6.572;2023-07-08T09:45:24;29.90;81.00
54832;DHT22;40730;53.068;6.572;2023-07-08T09:47:54;30.10;79.40
54832;DHT22;40730;53.068;6.572;2023-07-08T09:50:26;30.30;77.90
54832;DHT22;40730;53.068;6.572;2023-07-08T09:52:57;30.40;77.80
54832;DHT22;40730;53.068;6.572;2023-07-08T09:55:25;30.70;79.90
54832;DHT22;40730;53.068;6.572;2023-07-08T09:57:52;31.00;77.90
54832;DHT22;40730;53.068;6.572;2023-07-08T10:00:27;31.10;74.80
54832;DHT22;40730;53.068;6.572;2023-07-08T10:02:58;31.10;74.90
54832;DHT22;40730;53.068;6.572;2023-07-08T10:05:29;31.20;74.90
54832;DHT22;40730;53.068;6.572;2023-07-08T10:07:57;31.40;74.30
54832;DHT22;40730;53.068;6.572;2023-07-08T10:10:30;31.40;72.20
54832;DHT22;40730;53.068;6.572;2023-07-08T10:12:59;31.50;71.60
54832;DHT22;40730;53.068;6.572;2023-07-08T10:15:42;31.50;70.60
54832;DHT22;40730;53.068;6.572;2023-07-08T10:18:16;31.50;72.30
54832;DHT22;40730;53.068;6.572;2023-07-08T10:23:31;31.50;68.60
54832;DHT22;40730;53.068;6.572;2023-07-08T10:36:58;32.10;69.30
54832;DHT22;40730;53.068;6.572;2023-07-08T10:39:55;32.20;67.60
54832;DHT22;40730;53.068;6.572;2023-07-08T10:42:54;32.50;67.80
54832;DHT22;40730;53.068;6.572;2023-07-08T10:45:45;32.90;66.80
54832;DHT22;40730;53.068;6.572;2023-07-08T10:48:23;33.10;65.60
54832;DHT22;40730;53.068;6.572;2023-07-08T10:51:03;33.30;64.60
54832;DHT22;40730;53.068;6.572;2023-07-08T10:54:03;33.40;63.30
54832;DHT22;40730;53.068;6.572;2023-07-08T10:56:46;33.20;63.80
54832;DHT22;40730;53.068;6.572;2023-07-08T10:59:38;33.30;62.60
54832;DHT22;40730;53.068;6.572;2023-07-08T11:05:11;33.60;62.40
54832;DHT22;40730;53.068;6.572;2023-07-08T11:07:51;34.00;62.40
54832;DHT22;40730;53.068;6.572;2023-07-08T11:10:24;34.20;60.60
54832;DHT22;40730;53.068;6.572;2023-07-08T11:13:11;34.30;60.00
54832;DHT22;40730;53.068;6.572;2023-07-08T11:16:10;34.20;59.40
54832;DHT22;40730;53.068;6.572;2023-07-08T11:18:48;33.70;59.30
54832;DHT22;40730;53.068;6.572;2023-07-08T11:21:41;33.90;59.80
54832;DHT22;40730;53.068;6.572;2023-07-08T11:26:58;34.40;56.90
54832;DHT22;40730;53.068;6.572;2023-07-08T11:29:25;34.40;56.20
54832;DHT22;40730;53.068;6.572;2023-07-08T11:31:52;34.50;57.40
54832;DHT22;40730;53.068;6.572;2023-07-08T11:34:19;34.70;56.60
54832;DHT22;40730;53.068;6.572;2023-07-08T11:36:47;34.90;55.50
54832;DHT22;40730;53.068;6.572;2023-07-08T11:39:39;34.90;55.50
54832;DHT22;40730;53.068;6.572;2023-07-08T11:42:25;35.00;55.40
54832;DHT22;40730;53.068;6.572;2023-07-08T11:44:59;35.00;54.20
54832;DHT22;40730;53.068;6.572;2023-07-08T11:47:40;34.90;53.10
54832;DHT22;40730;53.068;6.572;2023-07-08T11:52:58;34.80;54.50
54832;DHT22;40730;53.068;6.572;2023-07-08T11:55:27;35.00;54.30
54832;DHT22;40730;53.068;6.572;2023-07-08T11:57:59;35.20;53.30
54832;DHT22;40730;53.068;6.572;2023-07-08T12:00:26;35.50;54.50
54832;DHT22;40730;53.068;6.572;2023-07-08T12:03:03;35.60;52.80
54832;DHT22;40730;53.068;6.572;2023-07-08T12:05:35;35.50;52.10
54832;DHT22;40730;53.068;6.572;2023-07-08T12:08:02;35.30;52.70
54832;DHT22;40730;53.068;6.572;2023-07-08T12:10:38;35.40;51.80
54832;DHT22;40730;53.068;6.572;2023-07-08T12:13:12;35.40;52.10
54832;DHT22;40730;53.068;6.572;2023-07-08T12:15:38;35.60;52.30
54832;DHT22;40730;53.068;6.572;2023-07-08T12:18:25;36.00;52.00
54832;DHT22;40730;53.068;6.572;2023-07-08T12:20:58;36.40;53.20
54832;DHT22;40730;53.068;6.572;2023-07-08T12:23:27;36.80;51.10
54832;DHT22;40730;53.068;6.572;2023-07-08T12:25:53;37.00;49.80
54832;DHT22;40730;53.068;6.572;2023-07-08T12:28:20;37.20;50.40
54832;DHT22;40730;53.068;6.572;2023-07-08T12:30:47;37.40;48.20
54832;DHT22;40730;53.068;6.572;2023-07-08T12:33:26;37.50;47.00
54832;DHT22;40730;53.068;6.572;2023-07-08T12:35:53;37.30;47.10
54832;DHT22;40730;53.068;6.572;2023-07-08T12:40:53;36.90;46.20
54832;DHT22;40730;53.068;6.572;2023-07-08T12:43:19;36.90;46.20
54832;DHT22;40730;53.068;6.572;2023-07-08T12:45:45;37.10;46.20
54832;DHT22;40730;53.068;6.572;2023-07-08T12:48:10;37.40;45.80
54832;DHT22;40730;53.068;6.572;2023-07-08T12:50:36;37.50;46.10
54832;DHT22;40730;53.068;6.572;2023-07-08T12:53:04;37.70;45.40
54832;DHT22;40730;53.068;6.572;2023-07-08T12:55:44;37.80;45.50
54832;DHT22;40730;53.068;6.572;2023-07-08T12:58:18;38.20;44.50
54832;DHT22;40730;53.068;6.572;2023-07-08T13:00:45;38.40;45.20
54832;DHT22;40730;53.068;6.572;2023-07-08T13:03:13;38.50;43.30
54832;DHT22;40730;53.068;6.572;2023-07-08T13:05:40;38.60;42.70
54832;DHT22;40730;53.068;6.572;2023-07-08T13:08:12;38.40;41.90
54832;DHT22;40730;53.068;6.572;2023-07-08T13:10:38;38.40;42.60
54832;DHT22;40730;53.068;6.572;2023-07-08T13:13:06;38.50;41.30
54832;DHT22;40730;53.068;6.572;2023-07-08T13:15:37;38.20;41.90
54832;DHT22;40730;53.068;6.572;2023-07-08T13:18:08;38.00;41.80
54832;DHT22;40730;53.068;6.572;2023-07-08T13:20:38;37.90;42.10
54832;DHT22;40730;53.068;6.572;2023-07-08T13:23:04;37.40;42.40
54832;DHT22;40730;53.068;6.572;2023-07-08T13:25:32;37.40;42.20
54832;DHT22;40730;53.068;6.572;2023-07-08T13:27:59;37.10;41.60
54832;DHT22;40730;53.068;6.572;2023-07-08T13:30:28;36.70;42.50
54832;DHT22;40730;53.068;6.572;2023-07-08T13:32:55;36.20;42.60
54832;DHT22;40730;53.068;6.572;2023-07-08T13:37:52;35.40;43.20
54832;DHT22;40730;53.068;6.572;2023-07-08T13:40:18;35.10;43.30
54832;DHT22;40730;53.068;6.572;2023-07-08T13:42:53;34.90;43.10
54832;DHT22;40730;53.068;6.572;2023-07-08T13:45:31;34.60;43.30
54832;DHT22;40730;53.068;6.572;2023-07-08T13:48:14;34.20;43.40
54832;DHT22;40730;53.068;6.572;2023-07-08T13:50:47;33.90;44.10
54832;DHT22;40730;53.068;6.572;2023-07-08T13:53:25;33.70;43.80
54832;DHT22;40730;53.068;6.572;2023-07-08T13:56:03;33.40;43.60
54832;DHT22;40730;53.068;6.572;2023-07-08T13:58:30;33.20;44.90
54832;DHT22;40730;53.068;6.572;2023-07-08T14:00:57;33.10;44.60
54832;DHT22;40730;53.068;6.572;2023-07-08T14:03:23;33.00;44.80
54832;DHT22;40730;53.068;6.572;2023-07-08T14:05:49;32.90;44.70
54832;DHT22;40730;53.068;6.572;2023-07-08T14:08:16;32.70;45.40
54832;DHT22;40730;53.068;6.572;2023-07-08T14:10:43;32.60;46.50
54832;DHT22;40730;53.068;6.572;2023-07-08T14:13:10;32.60;45.60
54832;DHT22;40730;53.068;6.572;2023-07-08T14:15:38;32.70;45.60
54832;DHT22;40730;53.068;6.572;2023-07-08T14:18:04;32.80;45.10
54832;DHT22;40730;53.068;6.572;2023-07-08T14:20:30;32.70;45.60
54832;DHT22;40730;53.068;6.572;2023-07-08T14:22:56;32.60;45.10
54832;DHT22;40730;53.068;6.572;2023-07-08T14:25:22;32.40;45.00
54832;DHT22;40730;53.068;6.572;2023-07-08T14:28:03;32.30;45.80
54832;DHT22;40730;53.068;6.572;2023-07-08T14:30:46;32.20;46.70
54832;DHT22;40730;53.068;6.572;2023-07-08T14:33:31;32.10;46.80
54832;DHT22;40730;53.068;6.572;2023-07-08T14:35:57;32.00;46.90
54832;DHT22;40730;53.068;6.572;2023-07-08T14:38:22;31.90;46.50
54832;DHT22;40730;53.068;6.572;2023-07-08T14:40:48;31.80;46.70
54832;DHT22;40730;53.068;6.572;2023-07-08T14:43:29;31.80;46.70
54832;DHT22;40730;53.068;6.572;2023-07-08T14:46:01;31.80;46.90
54832;DHT22;40730;53.068;6.572;2023-07-08T14:48:29;31.80;47.40
54832;DHT22;40730;53.068;6.572;2023-07-08T14:50:55;31.80;47.80
54832;DHT22;40730;53.068;6.572;2023-07-08T14:53:20;31.80;49.00
54832;DHT22;40730;53.068;6.572;2023-07-08T14:55:48;31.80;47.10
54832;DHT22;40730;53.068;6.572;2023-07-08T14:58:22;31.80;46.70
54832;DHT22;40730;53.068;6.572;2023-07-08T15:00:50;31.70;47.00
54832;DHT22;40730;53.068;6.572;2023-07-08T15:03:17;31.70;47.00
54832;DHT22;40730;53.068;6.572;2023-07-08T15:05:42;31.60;47.00
54832;DHT22;40730;53.068;6.572;2023-07-08T15:08:08;31.60;46.90
54832;DHT22;40730;53.068;6.572;2023-07-08T15:10:35;31.70;46.90
54832;DHT22;40730;53.068;6.572;2023-07-08T15:13:01;31.70;47.40
54832;DHT22;40730;53.068;6.572;2023-07-08T15:15:28;31.80;47.60
54832;DHT22;40730;53.068;6.572;2023-07-08T15:17:57;31.70;47.30
54832;DHT22;40730;53.068;6.572;2023-07-08T15:20:23;31.70;47.30
54832;DHT22;40730;53.068;6.572;2023-07-08T15:22:49;31.70;47.00
54832;DHT22;40730;53.068;6.572;2023-07-08T15:25:15;31.70;46.50
54832;DHT22;40730;53.068;6.572;2023-07-08T15:27:44;31.60;46.70
54832;DHT22;40730;53.068;6.572;2023-07-08T15:30:19;31.60;47.00
54832;DHT22;40730;53.068;6.572;2023-07-08T15:32:45;31.60;47.20
54832;DHT22;40730;53.068;6.572;2023-07-08T15:35:14;31.60;47.30
54832;DHT22;40730;53.068;6.572;2023-07-08T15:37:41;31.50;47.30
54832;DHT22;40730;53.068;6.572;2023-07-08T15:40:07;31.50;47.60
54832;DHT22;40730;53.068;6.572;2023-07-08T15:42:35;31.60;48.00
54832;DHT22;40730;53.068;6.572;2023-07-08T15:45:08;31.50;47.90
54832;DHT22;40730;53.068;6.572;2023-07-08T15:47:34;31.60;48.20
54832;DHT22;40730;53.068;6.572;2023-07-08T15:50:00;31.50;47.80
54832;DHT22;40730;53.068;6.572;2023-07-08T15:52:25;31.50;48.00
54832;DHT22;40730;53.068;6.572;2023-07-08T15:54:51;31.50;47.80
54832;DHT22;40730;53.068;6.572;2023-07-08T15:57:17;31.40;47.60
54832;DHT22;40730;53.068;6.572;2023-07-08T15:59:42;31.50;47.70
54832;DHT22;40730;53.068;6.572;2023-07-08T16:02:29;31.40;47.70
54832;DHT22;40730;53.068;6.572;2023-07-08T16:04:55;31.50;48.10
54832;DHT22;40730;53.068;6.572;2023-07-08T16:07:21;31.30;47.10
54832;DHT22;40730;53.068;6.572;2023-07-08T16:09:46;31.30;47.50
54832;DHT22;40730;53.068;6.572;2023-07-08T16:12:15;31.20;47.80
54832;DHT22;40730;53.068;6.572;2023-07-08T16:14:42;31.20;47.50
54832;DHT22;40730;53.068;6.572;2023-07-08T16:17:09;31.20;47.10
54832;DHT22;40730;53.068;6.572;2023-07-08T16:19:35;31.20;46.70
54832;DHT22;40730;53.068;6.572;2023-07-08T16:22:01;31.20;46.90
54832;DHT22;40730;53.068;6.572;2023-07-08T16:24:27;31.20;47.00
54832;DHT22;40730;53.068;6.572;2023-07-08T16:26:53;31.10;47.50
54832;DHT22;40730;53.068;6.572;2023-07-08T16:29:19;31.10;47.10
54832;DHT22;40730;53.068;6.572;2023-07-08T16:31:46;31.00;47.50